Time;durP1;ratioP1;P1;durP2;ratioP2;P2;SDS_P1;SDS_P2;PMS_P1;PMS_P2;Temp;Humidity;BMP_temperature;BMP_pressure;BME280_temperature;BME280_humidity;BME280_pressure;Samples;Min_cycle;Max_cycle;Signal;HPM_P1;HPM_P2
2022/11/09 00:01:05;;;;;;;13.00;6.30;;;;;;;;;;5040629;28;20158;-54
2022/11/09 00:03:35;;;;;;;11.75;6.43;;;;;;;;;;5047407;28;20056;-50
2022/11/09 00:06:03;;;;;;;10.63;6.85;;;;;;;;;;5046342;28;20052;-51
2022/11/09 00:08:33;;;;;;;14.48;6.03;;;;;;;;;;5041315;28;20053;-50
2022/11/09 00:11:05;;;;;;;11.75;6.20;;;;;;;;;;5049300;28;20551;-52
2022/11/09 00:13:36;;;;;;;13.27;6.10;;;;;;;;;;5045266;28;20518;-52
2022/11/09 00:16:05;;;;;;;14.20;6.07;;;;;;;;;;5041943;28;20129;-51
2022/11/09 00:18:36;;;;;;;11.25;6.00;;;;;;;;;;5047874;28;20103;-53
2022/11/09 00:21:07;;;;;;;13.10;6.53;;;;;;;;;;5037327;28;20390;-51
2022/11/09 00:23:36;;;;;;;12.95;6.28;;;;;;;;;;5037417;28;20061;-51
2022/11/09 00:26:05;;;;;;;10.57;6.00;;;;;;;;;;5048202;28;20052;-50
2022/11/09 00:28:41;;;;;;;13.20;6.47;;;;;;;;;;5047756;28;20090;-52
2022/11/09 00:31:11;;;;;;;10.07;5.30;;;;;;;;;;5037198;28;20133;-53
2022/11/09 00:33:54;;;;;;;14.00;5.93;;;;;;;;;;5037693;28;20080;-51
2022/11/09 00:36:22;;;;;;;15.50;6.25;;;;;;;;;;5040526;28;20076;-51
2022/11/09 00:38:53;;;;;;;12.88;5.95;;;;;;;;;;5037210;28;20049;-53
2022/11/09 00:41:22;;;;;;;13.10;5.70;;;;;;;;;;5049389;28;20059;-52
2022/11/09 00:43:52;;;;;;;12.40;6.35;;;;;;;;;;5047085;28;20392;-53
2022/11/09 00:46:19;;;;;;;10.48;5.15;;;;;;;;;;5033375;28;20072;-50
2022/11/09 00:48:48;;;;;;;9.23;5.13;;;;;;;;;;5039556;28;20142;-53
2022/11/09 00:51:17;;;;;;;11.35;5.22;;;;;;;;;;5042309;28;20053;-53
2022/11/09 00:53:52;;;;;;;9.93;5.03;;;;;;;;;;5047010;28;20440;-50
2022/11/09 00:56:23;;;;;;;12.60;5.60;;;;;;;;;;5032793;28;20057;-50
2022/11/09 00:58:52;;;;;;;10.73;4.90;;;;;;;;;;5039683;28;20063;-52
2022/11/09 01:01:20;;;;;;;10.07;4.97;;;;;;;;;;5052665;28;20048;-51
2022/11/09 01:03:49;;;;;;;10.02;5.53;;;;;;;;;;5032779;28;20405;-50
2022/11/09 01:06:20;;;;;;;11.85;6.28;;;;;;;;;;5046846;28;20432;-50
2022/11/09 01:08:48;;;;;;;9.20;5.63;;;;;;;;;;5040761;28;20172;-50
2022/11/09 01:11:17;;;;;;;11.40;5.28;;;;;;;;;;5045120;28;20045;-50
2022/11/09 01:13:44;;;;;;;10.50;4.65;;;;;;;;;;5042082;28;20128;-53
2022/11/09 01:16:13;;;;;;;10.13;4.60;;;;;;;;;;5036337;28;20552;-49
2022/11/09 01:18:42;;;;;;;10.85;5.70;;;;;;;;;;5037098;28;20053;-55
2022/11/09 01:21:23;;;;;;;8.70;4.95;;;;;;;;;;5035991;28;20045;-54
2022/11/09 01:23:51;;;;;;;12.90;5.78;;;;;;;;;;5032162;28;20529;-55
2022/11/09 01:26:20;;;;;;;8.25;5.05;;;;;;;;;;5039354;28;20160;-51
2022/11/09 01:28:48;;;;;;;14.07;7.18;;;;;;;;;;5038841;28;20152;-53
2022/11/09 01:31:16;;;;;;;12.27;5.95;;;;;;;;;;5034289;28;20132;-51
2022/11/09 01:33:44;;;;;;;14.25;7.03;;;;;;;;;;5046198;28;20045;-53
2022/11/09 01:36:15;;;;;;;12.75;5.65;;;;;;;;;;5043091;28;20175;-53
2022/11/09 01:38:51;;;;;;;13.02;5.78;;;;;;;;;;5045736;28;20052;-54
2022/11/09 01:41:28;;;;;;;10.90;7.28;;;;;;;;;;5032190;28;20064;-51
2022/11/09 01:44:19;;;;;;;12.00;5.45;;;;;;;;;;5046749;28;20146;-51
2022/11/09 01:46:48;;;;;;;11.43;5.05;;;;;;;;;;5045233;28;20151;-51
2022/11/09 01:49:19;;;;;;;14.15;6.40;;;;;;;;;;5043730;28;20049;-51
2022/11/09 01:52:04;;;;;;;12.82;6.60;;;;;;;;;;5041234;28;20741;-54
2022/11/09 01:54:35;;;;;;;13.50;5.93;;;;;;;;;;5034752;28;20050;-52
2022/11/09 01:57:19;;;;;;;8.25;4.55;;;;;;;;;;5042030;28;20048;-50
2022/11/09 01:59:48;;;;;;;9.60;5.00;;;;;;;;;;5039030;28;20064;-51
2022/11/09 02:02:23;;;;;;;9.30;5.40;;;;;;;;;;5041706;28;20129;-52
2022/11/09 02:04:56;;;;;;;13.88;5.78;;;;;;;;;;5032462;28;20124;-51
2022/11/09 02:07:26;;;;;;;18.42;6.72;;;;;;;;;;5032826;28;20138;-51
2022/11/09 02:09:55;;;;;;;12.68;6.13;;;;;;;;;;5046184;28;20478;-51
2022/11/09 02:12:25;;;;;;;10.25;5.88;;;;;;;;;;5039579;28;20053;-51
2022/11/09 02:14:55;;;;;;;13.43;7.03;;;;;;;;;;5056338;28;20127;-51
2022/11/09 02:17:23;;;;;;;12.35;5.68;;;;;;;;;;5054596;28;20521;-53
2022/11/09 02:22:33;;;;;;;12.75;5.82;;;;;;;;;;5046117;28;20045;-52
2022/11/09 02:25:00;;;;;;;12.55;5.78;;;;;;;;;;5036086;28;20061;-50
2022/11/09 02:27:30;;;;;;;10.80;6.65;;;;;;;;;;5037147;28;20049;-51
2022/11/09 02:29:58;;;;;;;12.30;6.70;;;;;;;;;;5039508;28;20052;-52
2022/11/09 02:32:28;;;;;;;10.82;5.57;;;;;;;;;;5041614;28;20517;-54
2022/11/09 02:34:56;;;;;;;9.88;5.43;;;;;;;;;;5036858;28;20037;-52
2022/11/09 02:37:28;;;;;;;12.05;5.78;;;;;;;;;;5018898;28;20446;-50
2022/11/09 02:39:59;;;;;;;14.68;6.43;;;;;;;;;;5041577;28;20140;-52
2022/11/09 02:42:26;;;;;;;14.30;6.63;;;;;;;;;;5035501;28;20064;-52
2022/11/09 02:44:56;;;;;;;12.70;6.18;;;;;;;;;;5035384;28;20450;-51
2022/11/09 02:47:24;;;;;;;11.55;6.40;;;;;;;;;;5042813;28;20040;-52
2022/11/09 02:49:52;;;;;;;10.55;5.55;;;;;;;;;;5041475;28;20127;-51
2022/11/09 02:52:19;;;;;;;12.02;6.22;;;;;;;;;;5059748;28;20048;-51
2022/11/09 02:54:49;;;;;;;11.20;6.35;;;;;;;;;;5046464;28;20085;-51
2022/11/09 02:57:19;;;;;;;16.00;6.70;;;;;;;;;;5046893;28;20059;-51
2022/11/09 02:59:48;;;;;;;14.25;6.50;;;;;;;;;;5037002;28;20140;-50
2022/11/09 03:02:15;;;;;;;15.52;7.35;;;;;;;;;;5047178;28;20052;-52
2022/11/09 03:04:43;;;;;;;9.48;5.63;;;;;;;;;;5045326;28;20061;-54
2022/11/09 03:07:09;;;;;;;13.93;5.80;;;;;;;;;;5035673;28;20046;-53
2022/11/09 03:09:38;;;;;;;13.60;6.18;;;;;;;;;;5039665;28;20136;-54
2022/11/09 03:14:50;;;;;;;12.10;6.47;;;;;;;;;;5047041;28;20371;-50
2022/11/09 03:17:18;;;;;;;11.73;5.65;;;;;;;;;;5045917;28;20053;-50
2022/11/09 03:19:48;;;;;;;11.07;6.53;;;;;;;;;;5053527;28;20053;-53
2022/11/09 03:22:16;;;;;;;11.32;6.30;;;;;;;;;;5049958;28;20041;-50
2022/11/09 03:24:43;;;;;;;14.88;7.10;;;;;;;;;;5054498;28;20045;-50
2022/11/09 03:27:11;;;;;;;14.50;7.20;;;;;;;;;;5045436;28;20132;-52
2022/11/09 03:29:40;;;;;;;13.13;7.63;;;;;;;;;;5041181;28;20131;-50
2022/11/09 03:32:10;;;;;;;14.27;7.00;;;;;;;;;;5044627;28;20053;-54
2022/11/09 03:34:37;;;;;;;14.65;6.47;;;;;;;;;;5038828;28;20435;-53
2022/11/09 03:37:07;;;;;;;11.45;6.80;;;;;;;;;;5054335;28;20140;-51
2022/11/09 03:39:35;;;;;;;12.20;6.70;;;;;;;;;;5041480;28;20076;-51
2022/11/09 03:42:03;;;;;;;11.00;6.22;;;;;;;;;;5033503;28;20140;-51
2022/11/09 03:44:30;;;;;;;13.35;7.13;;;;;;;;;;5047301;28;20370;-51
2022/11/09 03:46:58;;;;;;;12.85;6.38;;;;;;;;;;5050720;28;20059;-53
2022/11/09 03:49:27;;;;;;;14.30;7.20;;;;;;;;;;5041195;28;20163;-54
2022/11/09 03:51:55;;;;;;;12.68;6.35;;;;;;;;;;5050568;28;20136;-53
2022/11/09 03:54:23;;;;;;;13.93;6.50;;;;;;;;;;5048349;28;20088;-50
2022/11/09 03:56:50;;;;;;;14.80;6.78;;;;;;;;;;5034512;28;20128;-54
2022/11/09 03:59:18;;;;;;;12.20;6.90;;;;;;;;;;5040871;28;20132;-54
2022/11/09 04:01:46;;;;;;;14.82;7.13;;;;;;;;;;5043842;28;20056;-53
2022/11/09 04:04:15;;;;;;;15.65;6.88;;;;;;;;;;5048022;28;20052;-54
2022/11/09 04:06:47;;;;;;;13.50;6.95;;;;;;;;;;5044359;28;20083;-51
2022/11/09 04:09:17;;;;;;;16.38;7.15;;;;;;;;;;5042418;28;20048;-51
2022/11/09 04:11:44;;;;;;;14.80;7.07;;;;;;;;;;5048887;28;20110;-51
2022/11/09 04:14:12;;;;;;;16.27;8.50;;;;;;;;;;5049693;28;20073;-54
2022/11/09 04:16:42;;;;;;;15.18;7.07;;;;;;;;;;5037472;28;20049;-52
2022/11/09 04:19:09;;;;;;;12.38;6.68;;;;;;;;;;5046985;28;20128;-50
2022/11/09 04:21:37;;;;;;;14.77;7.55;;;;;;;;;;5033639;28;20045;-52
2022/11/09 04:24:18;;;;;;;13.45;6.45;;;;;;;;;;5044759;28;20081;-51
2022/11/09 04:26:46;;;;;;;13.85;6.75;;;;;;;;;;5036341;28;20128;-50
2022/11/09 04:29:14;;;;;;;14.25;6.70;;;;;;;;;;5047845;28;20045;-51
2022/11/09 04:31:42;;;;;;;15.20;6.90;;;;;;;;;;5035616;28;20053;-50
2022/11/09 04:34:10;;;;;;;14.07;7.90;;;;;;;;;;5036495;28;20132;-54
2022/11/09 04:36:37;;;;;;;14.35;6.68;;;;;;;;;;5043603;28;20099;-52
2022/11/09 04:39:04;;;;;;;17.88;8.05;;;;;;;;;;5046869;28;20129;-51
2022/11/09 04:41:33;;;;;;;14.15;7.32;;;;;;;;;;5033782;28;20132;-51
2022/11/09 04:44:03;;;;;;;15.65;7.13;;;;;;;;;;5036257;28;20488;-51
2022/11/09 04:46:29;;;;;;;17.52;7.80;;;;;;;;;;5041212;28;20532;-53
2022/11/09 04:48:57;;;;;;;18.02;8.35;;;;;;;;;;5046537;28;20053;-50
2022/11/09 04:51:23;;;;;;;13.95;7.88;;;;;;;;;;5039737;28;20132;-52
2022/11/09 04:53:51;;;;;;;13.98;7.47;;;;;;;;;;5045571;28;20053;-50
2022/11/09 04:56:18;;;;;;;14.63;7.50;;;;;;;;;;5033506;28;20122;-51
2022/11/09 04:58:49;;;;;;;19.48;8.32;;;;;;;;;;5036569;28;20098;-52
2022/11/09 05:01:17;;;;;;;14.95;7.93;;;;;;;;;;5036464;28;20056;-52
2022/11/09 05:03:43;;;;;;;13.10;7.03;;;;;;;;;;5038927;28;20083;-52
2022/11/09 05:08:56;;;;;;;13.73;7.23;;;;;;;;;;5047286;28;20047;-52
2022/11/09 05:11:24;;;;;;;15.73;8.27;;;;;;;;;;5049811;28;20088;-50
2022/11/09 05:13:54;;;;;;;13.45;7.60;;;;;;;;;;5041074;28;20045;-50
2022/11/09 05:16:30;;;;;;;14.23;7.50;;;;;;;;;;5036404;28;20140;-53
2022/11/09 05:18:58;;;;;;;18.35;7.95;;;;;;;;;;5033094;28;20128;-53
2022/11/09 05:21:26;;;;;;;17.33;7.72;;;;;;;;;;5032312;28;20176;-51
2022/11/09 05:23:59;;;;;;;15.93;8.23;;;;;;;;;;5037270;28;20141;-50
2022/11/09 05:26:31;;;;;;;15.05;7.07;;;;;;;;;;5032963;28;20037;-50
2022/11/09 05:29:07;;;;;;;14.40;7.90;;;;;;;;;;5039558;28;20084;-50
2022/11/09 05:31:37;;;;;;;18.42;8.00;;;;;;;;;;5032805;28;20045;-52
2022/11/09 05:34:14;;;;;;;17.55;8.23;;;;;;;;;;5032743;28;20202;-54
2022/11/09 05:36:42;;;;;;;18.50;8.32;;;;;;;;;;5032368;28;20059;-53
2022/11/09 05:39:09;;;;;;;18.05;8.60;;;;;;;;;;5044166;28;20397;-51
2022/11/09 05:41:40;;;;;;;17.02;8.90;;;;;;;;;;5038065;28;20176;-50
2022/11/09 05:44:16;;;;;;;17.05;8.90;;;;;;;;;;5036284;28;20050;-51
2022/11/09 05:46:44;;;;;;;17.02;9.20;;;;;;;;;;5032888;28;20054;-50
2022/11/09 05:49:12;;;;;;;17.20;7.93;;;;;;;;;;5038115;28;20435;-54
2022/11/09 05:51:40;;;;;;;17.70;8.77;;;;;;;;;;5038633;28;20053;-51
2022/11/09 05:54:09;;;;;;;18.88;9.25;;;;;;;;;;5049350;28;20041;-52
2022/11/09 05:56:38;;;;;;;18.02;8.48;;;;;;;;;;5032245;28;20057;-50
2022/11/09 05:59:06;;;;;;;16.20;8.02;;;;;;;;;;5049027;28;20106;-51
2022/11/09 06:01:40;;;;;;;18.73;8.57;;;;;;;;;;5040272;28;20156;-54
2022/11/09 06:04:08;;;;;;;16.90;8.32;;;;;;;;;;5045011;28;20054;-52
2022/11/09 06:06:38;;;;;;;15.45;7.70;;;;;;;;;;5044492;28;20140;-51
2022/11/09 06:09:07;;;;;;;18.30;8.57;;;;;;;;;;5050754;28;20056;-52
2022/11/09 06:11:37;;;;;;;13.80;8.38;;;;;;;;;;5048194;28;20688;-53
2022/11/09 06:14:05;;;;;;;21.50;10.07;;;;;;;;;;5041951;28;20084;-50
2022/11/09 06:16:35;;;;;;;19.85;10.20;;;;;;;;;;5039104;28;20120;-50
2022/11/09 06:19:15;;;;;;;16.30;9.30;;;;;;;;;;5040586;28;20065;-52
2022/11/09 06:21:43;;;;;;;16.80;8.70;;;;;;;;;;5031857;28;20057;-50
2022/11/09 06:24:10;;;;;;;18.45;8.98;;;;;;;;;;5043038;28;20094;-51
2022/11/09 06:26:40;;;;;;;19.55;9.52;;;;;;;;;;5042246;28;20132;-50
2022/11/09 06:29:07;;;;;;;18.35;9.57;;;;;;;;;;5034784;28;20073;-50
2022/11/09 06:31:37;;;;;;;20.13;8.40;;;;;;;;;;5041578;28;20049;-50
2022/11/09 06:34:09;;;;;;;16.52;9.38;;;;;;;;;;5030897;28;20049;-49
2022/11/09 06:36:37;;;;;;;20.38;9.23;;;;;;;;;;5033733;28;20057;-49
2022/11/09 06:39:07;;;;;;;18.88;9.93;;;;;;;;;;5039941;28;20054;-52
2022/11/09 06:41:37;;;;;;;19.17;9.00;;;;;;;;;;5039297;28;20053;-49
2022/11/09 06:44:07;;;;;;;17.20;9.52;;;;;;;;;;5041307;28;20425;-51
2022/11/09 06:46:37;;;;;;;18.38;9.40;;;;;;;;;;5030654;28;20355;-53
2022/11/09 06:49:05;;;;;;;18.13;9.38;;;;;;;;;;5030978;28;20068;-49
2022/11/09 06:51:32;;;;;;;25.05;10.85;;;;;;;;;;5040374;28;20053;-50
2022/11/09 06:53:59;;;;;;;24.10;10.63;;;;;;;;;;5048246;28;20060;-49
2022/11/09 06:56:27;;;;;;;16.52;9.75;;;;;;;;;;5036098;28;20140;-52
2022/11/09 06:58:54;;;;;;;23.02;10.65;;;;;;;;;;5035568;28;20053;-49
2022/11/09 07:01:23;;;;;;;17.35;9.85;;;;;;;;;;5035636;28;20049;-49
2022/11/09 07:03:51;;;;;;;19.08;9.07;;;;;;;;;;5038003;28;20398;-53
2022/11/09 07:06:32;;;;;;;19.25;9.48;;;;;;;;;;5045521;28;20136;-51
2022/11/09 07:09:01;;;;;;;19.65;9.65;;;;;;;;;;5038813;28;20518;-49
2022/11/09 07:11:28;;;;;;;16.25;8.73;;;;;;;;;;5044420;28;21367;-50
2022/11/09 07:13:56;;;;;;;19.73;9.25;;;;;;;;;;5038887;28;20171;-51
2022/11/09 07:16:23;;;;;;;16.25;9.15;;;;;;;;;;5038835;28;20123;-52
2022/11/09 07:18:51;;;;;;;18.85;9.90;;;;;;;;;;5045430;28;20127;-52
2022/11/09 07:21:27;;;;;;;19.48;8.82;;;;;;;;;;5050759;28;20064;-50
2022/11/09 07:23:57;;;;;;;20.80;10.63;;;;;;;;;;5045654;28;20057;-52
2022/11/09 07:26:26;;;;;;;17.23;9.52;;;;;;;;;;5040178;28;20059;-49
2022/11/09 07:28:54;;;;;;;24.50;9.80;;;;;;;;;;5034723;28;20081;-52
2022/11/09 07:31:21;;;;;;;15.45;8.57;;;;;;;;;;5038242;28;20124;-51
2022/11/09 07:33:49;;;;;;;16.85;8.82;;;;;;;;;;5034784;28;20136;-52
2022/11/09 07:36:17;;;;;;;19.48;8.95;;;;;;;;;;5039617;28;20133;-52
2022/11/09 07:38:50;;;;;;;15.70;8.88;;;;;;;;;;5041419;28;20136;-50
2022/11/09 07:41:20;;;;;;;20.85;9.93;;;;;;;;;;5035086;28;20049;-51
2022/11/09 07:43:50;;;;;;;20.60;10.07;;;;;;;;;;5039421;28;20052;-52
2022/11/09 07:46:20;;;;;;;20.20;9.13;;;;;;;;;;5034372;28;20485;-50
2022/11/09 07:48:48;;;;;;;15.45;9.38;;;;;;;;;;5034625;28;20153;-49
2022/11/09 07:51:18;;;;;;;23.05;10.35;;;;;;;;;;5043577;28;20084;-52
2022/11/09 07:54:07;;;;;;;22.73;10.68;;;;;;;;;;5052652;28;20049;-50
2022/11/09 07:56:37;;;;;;;22.90;10.63;;;;;;;;;;5044219;28;20056;-50
2022/11/09 07:59:05;;;;;;;25.10;10.95;;;;;;;;;;5040914;28;20088;-50
2022/11/09 08:01:33;;;;;;;19.42;10.98;;;;;;;;;;5043306;28;20045;-49
2022/11/09 08:04:01;;;;;;;23.25;9.95;;;;;;;;;;5047191;28;20545;-49
2022/11/09 08:06:31;;;;;;;17.88;9.85;;;;;;;;;;5035584;28;20076;-51
2022/11/09 08:09:06;;;;;;;26.58;10.85;;;;;;;;;;5053501;28;20056;-50
2022/11/09 08:11:32;;;;;;;21.77;9.40;;;;;;;;;;5043676;28;20128;-52
2022/11/09 08:14:00;;;;;;;21.08;10.38;;;;;;;;;;5034110;28;20111;-49
2022/11/09 08:16:30;;;;;;;19.75;9.70;;;;;;;;;;5034152;28;20125;-49
2022/11/09 08:18:56;;;;;;;15.57;9.35;;;;;;;;;;5034157;28;20151;-49
2022/11/09 08:21:24;;;;;;;21.73;9.05;;;;;;;;;;5033762;28;20053;-49
2022/11/09 08:23:52;;;;;;;23.48;9.45;;;;;;;;;;5038971;28;20128;-53
2022/11/09 08:26:27;;;;;;;18.60;8.85;;;;;;;;;;5034448;28;20124;-50
2022/11/09 08:28:56;;;;;;;16.70;8.97;;;;;;;;;;5033562;28;20444;-53
2022/11/09 08:31:25;;;;;;;15.63;8.50;;;;;;;;;;5035347;28;20063;-51
2022/11/09 08:33:52;;;;;;;17.02;8.95;;;;;;;;;;5039661;28;20425;-53
2022/11/09 08:36:24;;;;;;;16.92;8.95;;;;;;;;;;5044168;28;20088;-50
2022/11/09 08:38:53;;;;;;;19.08;9.40;;;;;;;;;;5040271;28;20113;-53
2022/11/09 08:41:29;;;;;;;17.27;8.85;;;;;;;;;;5050278;28;20140;-50
2022/11/09 08:43:56;;;;;;;18.90;8.73;;;;;;;;;;5035605;28;20059;-52
2022/11/09 08:46:26;;;;;;;18.08;9.50;;;;;;;;;;5041468;28;20128;-50
2022/11/09 08:48:54;;;;;;;23.35;9.00;;;;;;;;;;5046329;28;20056;-50
2022/11/09 08:51:22;;;;;;;18.75;8.60;;;;;;;;;;5050512;28;20041;-49
2022/11/09 08:53:52;;;;;;;16.05;8.98;;;;;;;;;;5051304;28;20132;-50
2022/11/09 08:56:35;;;;;;;16.60;8.82;;;;;;;;;;5033344;28;20045;-50
2022/11/09 08:59:03;;;;;;;16.52;8.35;;;;;;;;;;5033224;28;20128;-51
2022/11/09 09:01:31;;;;;;;17.00;9.02;;;;;;;;;;5032940;28;20463;-51
2022/11/09 09:03:58;;;;;;;16.23;8.52;;;;;;;;;;5032869;28;20500;-49
2022/11/09 09:06:26;;;;;;;19.10;9.20;;;;;;;;;;5045509;28;20124;-49
2022/11/09 09:08:54;;;;;;;18.95;8.02;;;;;;;;;;5053038;28;20060;-50
2022/11/09 09:11:23;;;;;;;16.20;8.57;;;;;;;;;;5045288;28;20053;-50
2022/11/09 09:13:49;;;;;;;21.90;9.18;;;;;;;;;;5033028;28;20052;-50
2022/11/09 09:16:19;;;;;;;16.52;8.25;;;;;;;;;;5032448;28;20044;-52
2022/11/09 09:18:48;;;;;;;15.45;8.60;;;;;;;;;;5033066;28;20115;-53
2022/11/09 09:21:16;;;;;;;20.80;9.30;;;;;;;;;;5041038;28;20054;-50
2022/11/09 09:23:43;;;;;;;15.93;8.30;;;;;;;;;;5041433;28;20199;-52
2022/11/09 09:26:11;;;;;;;15.45;8.45;;;;;;;;;;5032771;28;20045;-50
2022/11/09 09:28:52;;;;;;;18.00;8.60;;;;;;;;;;5032397;28;20057;-49
2022/11/09 09:31:21;;;;;;;15.60;8.27;;;;;;;;;;5032810;28;20158;-49
2022/11/09 09:33:51;;;;;;;15.20;7.07;;;;;;;;;;5032556;28;20049;-49
2022/11/09 09:36:19;;;;;;;18.80;8.50;;;;;;;;;;5049835;28;20431;-49
2022/11/09 09:38:57;;;;;;;15.88;8.30;;;;;;;;;;5039091;28;20045;-51
2022/11/09 09:41:28;;;;;;;18.35;8.40;;;;;;;;;;5048142;28;20064;-50
2022/11/09 09:44:14;;;;;;;14.00;8.07;;;;;;;;;;5044511;28;20080;-50
2022/11/09 09:46:47;;;;;;;16.17;8.38;;;;;;;;;;5033242;28;20132;-49
2022/11/09 09:49:25;;;;;;;17.17;8.27;;;;;;;;;;5046185;28;20059;-49
2022/11/09 09:51:55;;;;;;;14.07;7.80;;;;;;;;;;5052077;28;20056;-51
2022/11/09 09:54:25;;;;;;;14.63;8.80;;;;;;;;;;5046174;28;20399;-51
2022/11/09 09:56:54;;;;;;;19.45;9.38;;;;;;;;;;5032387;28;20111;-51
2022/11/09 09:59:38;;;;;;;14.82;8.90;;;;;;;;;;5037958;28;20110;-53
2022/11/09 10:02:11;;;;;;;18.42;9.20;;;;;;;;;;5037173;28;20057;-52
2022/11/09 10:04:41;;;;;;;15.02;8.40;;;;;;;;;;5042008;28;20134;-50
2022/11/09 10:07:15;;;;;;;14.32;7.90;;;;;;;;;;5048076;28;20099;-50
2022/11/09 10:09:51;;;;;;;18.23;8.85;;;;;;;;;;5042979;28;20469;-53
2022/11/09 10:12:21;;;;;;;15.85;8.75;;;;;;;;;;5050844;28;20514;-52
2022/11/09 10:15:09;;;;;;;17.10;8.55;;;;;;;;;;5050180;28;20136;-50
2022/11/09 10:17:55;;;;;;;15.05;7.70;;;;;;;;;;5031690;28;20085;-50
2022/11/09 10:20:37;;;;;;;13.82;7.68;;;;;;;;;;5037359;28;20056;-53
2022/11/09 10:23:19;;;;;;;19.95;8.10;;;;;;;;;;5046490;28;20064;-50
2022/11/09 10:25:49;;;;;;;13.13;7.07;;;;;;;;;;5032386;28;20132;-52
2022/11/09 10:28:20;;;;;;;13.50;7.43;;;;;;;;;;5031563;28;20128;-53
2022/11/09 10:30:49;;;;;;;15.68;8.50;;;;;;;;;;5036358;28;20055;-52
2022/11/09 10:33:32;;;;;;;17.55;8.95;;;;;;;;;;5036518;28;20049;-49
2022/11/09 10:36:03;;;;;;;19.92;8.20;;;;;;;;;;5042220;28;20045;-51
2022/11/09 10:38:31;;;;;;;17.20;7.97;;;;;;;;;;5037480;28;20137;-49
2022/11/09 10:41:03;;;;;;;22.92;8.35;;;;;;;;;;5042098;28;20138;-51
2022/11/09 10:43:33;;;;;;;12.93;8.23;;;;;;;;;;5049701;28;20619;-49
2022/11/09 10:46:04;;;;;;;17.83;7.85;;;;;;;;;;5041004;28;20052;-50
2022/11/09 10:48:42;;;;;;;14.70;7.97;;;;;;;;;;5038691;28;20085;-49
2022/11/09 10:51:33;;;;;;;15.63;8.18;;;;;;;;;;5041944;28;20087;-49
2022/11/09 10:54:16;;;;;;;21.33;8.43;;;;;;;;;;5053416;28;20730;-49
2022/11/09 10:56:46;;;;;;;14.65;7.07;;;;;;;;;;5044809;28;20056;-49
2022/11/09 10:59:30;;;;;;;14.52;8.07;;;;;;;;;;5035299;28;20064;-50
2022/11/09 11:01:59;;;;;;;14.05;7.10;;;;;;;;;;5041210;28;20052;-49
2022/11/09 11:04:31;;;;;;;15.45;8.35;;;;;;;;;;5044611;28;20107;-49
2022/11/09 11:06:58;;;;;;;12.98;7.85;;;;;;;;;;5045180;28;20056;-49
2022/11/09 11:09:28;;;;;;;11.88;6.88;;;;;;;;;;5041729;28;20669;-50
2022/11/09 11:12:13;;;;;;;15.15;7.28;;;;;;;;;;5048186;28;20132;-50
2022/11/09 11:14:47;;;;;;;15.02;7.13;;;;;;;;;;5038503;28;20057;-50
2022/11/09 11:17:21;;;;;;;15.35;7.65;;;;;;;;;;5034671;28;20128;-50
2022/11/09 11:20:20;;;;;;;13.88;7.28;;;;;;;;;;5046566;28;20045;-49
2022/11/09 11:22:47;;;;;;;16.70;7.38;;;;;;;;;;5043170;28;20049;-51
2022/11/09 11:25:18;;;;;;;16.90;7.60;;;;;;;;;;5036828;28;20149;-50
2022/11/09 11:27:48;;;;;;;15.48;7.72;;;;;;;;;;5033917;28;20056;-49
2022/11/09 11:30:17;;;;;;;12.18;7.88;;;;;;;;;;5034623;28;20148;-49
2022/11/09 11:32:45;;;;;;;13.40;8.07;;;;;;;;;;5037572;28;20135;-50
2022/11/09 11:35:21;;;;;;;17.02;7.78;;;;;;;;;;5038261;28;20161;-50
2022/11/09 11:37:53;;;;;;;14.13;7.85;;;;;;;;;;5034860;28;20053;-50
2022/11/09 11:40:23;;;;;;;20.10;7.85;;;;;;;;;;5040609;28;20136;-52
2022/11/09 11:43:12;;;;;;;19.23;8.15;;;;;;;;;;5048049;28;20192;-51
2022/11/09 11:45:41;;;;;;;17.58;8.48;;;;;;;;;;5034349;28;20049;-49
2022/11/09 11:48:20;;;;;;;16.70;8.25;;;;;;;;;;5037501;28;20561;-50
2022/11/09 11:50:54;;;;;;;15.98;7.95;;;;;;;;;;5034721;28;20076;-53
2022/11/09 11:53:36;;;;;;;22.27;8.90;;;;;;;;;;5052651;28;20107;-49
2022/11/09 11:56:14;;;;;;;15.20;8.32;;;;;;;;;;5033177;28;20151;-50
2022/11/09 11:58:49;;;;;;;17.38;8.35;;;;;;;;;;5034632;28;20115;-52
2022/11/09 12:01:33;;;;;;;18.45;8.35;;;;;;;;;;5037647;28;20107;-50
2022/11/09 12:04:11;;;;;;;16.95;8.18;;;;;;;;;;5039497;28;20136;-52
2022/11/09 12:06:54;;;;;;;17.98;8.23;;;;;;;;;;5040854;28;20053;-50
2022/11/09 12:09:36;;;;;;;18.52;8.85;;;;;;;;;;5046974;28;20087;-50
2022/11/09 12:12:19;;;;;;;14.20;7.88;;;;;;;;;;5046746;28;20611;-51
2022/11/09 12:15:20;;;;;;;13.32;7.70;;;;;;;;;;5039946;28;20460;-52
2022/11/09 12:17:53;;;;;;;13.98;7.40;;;;;;;;;;5042072;28;20056;-52
2022/11/09 12:20:26;;;;;;;14.05;7.70;;;;;;;;;;5049905;28;20156;-52
2022/11/09 12:23:14;;;;;;;14.15;7.80;;;;;;;;;;5045824;28;20110;-52
2022/11/09 12:25:49;;;;;;;15.57;7.85;;;;;;;;;;5033812;28;20136;-50
2022/11/09 12:28:26;;;;;;;14.68;7.18;;;;;;;;;;5033828;28;20124;-50
2022/11/09 12:31:01;;;;;;;14.52;7.93;;;;;;;;;;5035316;28;20546;-50
2022/11/09 12:33:31;;;;;;;14.52;7.45;;;;;;;;;;5037357;28;20128;-52
2022/11/09 12:36:01;;;;;;;13.45;8.05;;;;;;;;;;5034080;28;20128;-52
2022/11/09 12:38:33;;;;;;;13.95;7.78;;;;;;;;;;5034771;28;20128;-52
2022/11/09 12:41:18;;;;;;;15.02;7.00;;;;;;;;;;5037927;28;20115;-53
2022/11/09 12:43:52;;;;;;;20.48;9.00;;;;;;;;;;5033557;28;20049;-51
2022/11/09 12:46:22;;;;;;;20.55;9.70;;;;;;;;;;5035999;28;20051;-50
2022/11/09 12:48:53;;;;;;;19.90;10.27;;;;;;;;;;5036888;28;20814;-51
2022/11/09 12:51:21;;;;;;;15.20;8.18;;;;;;;;;;5037579;28;20126;-53
2022/11/09 12:53:49;;;;;;;14.18;7.35;;;;;;;;;;5052016;28;20049;-51
2022/11/09 12:56:20;;;;;;;16.77;7.97;;;;;;;;;;5028720;28;20045;-52
2022/11/09 12:58:47;;;;;;;18.15;9.75;;;;;;;;;;5033007;28;20650;-51
2022/11/09 13:01:41;;;;;;;17.13;9.43;;;;;;;;;;5038742;28;20053;-52
2022/11/09 13:04:15;;;;;;;17.35;7.80;;;;;;;;;;5034143;28;20123;-52
2022/11/09 13:06:42;;;;;;;12.30;7.68;;;;;;;;;;5033295;28;20049;-50
2022/11/09 13:09:26;;;;;;;13.50;7.35;;;;;;;;;;5032783;28;20049;-53
2022/11/09 13:12:16;;;;;;;14.13;7.20;;;;;;;;;;5041637;28;20049;-52
2022/11/09 13:14:43;;;;;;;15.45;7.85;;;;;;;;;;5035947;28;20128;-51
2022/11/09 13:17:30;;;;;;;17.08;6.75;;;;;;;;;;5040413;28;20059;-52
2022/11/09 13:19:58;;;;;;;13.90;7.07;;;;;;;;;;5033546;28;20441;-50
2022/11/09 13:22:51;;;;;;;12.48;6.53;;;;;;;;;;5052663;28;20481;-51
2022/11/09 13:25:36;;;;;;;13.60;7.35;;;;;;;;;;5029868;28;20175;-50
2022/11/09 13:28:38;;;;;;;15.07;7.40;;;;;;;;;;5032341;28;20049;-52
2022/11/09 13:31:16;;;;;;;12.73;6.38;;;;;;;;;;5038706;28;20135;-52
2022/11/09 13:33:44;;;;;;;12.48;6.72;;;;;;;;;;5041289;28;20048;-53
2022/11/09 13:36:18;;;;;;;12.43;6.85;;;;;;;;;;5050084;28;20048;-53
2022/11/09 13:38:47;;;;;;;13.48;7.22;;;;;;;;;;5035563;28;20056;-49
2022/11/09 13:41:33;;;;;;;14.10;7.10;;;;;;;;;;5033998;28;20133;-50
2022/11/09 13:44:14;;;;;;;14.25;7.80;;;;;;;;;;5035876;28;20068;-50
2022/11/09 13:46:43;;;;;;;12.32;7.15;;;;;;;;;;5035583;28;20154;-50
2022/11/09 13:49:34;;;;;;;13.18;7.57;;;;;;;;;;5032707;28;20144;-49
2022/11/09 13:52:04;;;;;;;15.38;7.55;;;;;;;;;;5043147;28;20059;-50
2022/11/09 13:54:33;;;;;;;13.68;6.90;;;;;;;;;;5046959;28;20143;-50
2022/11/09 13:57:02;;;;;;;14.00;7.20;;;;;;;;;;5032779;28;20077;-53
2022/11/09 13:59:46;;;;;;;14.05;7.38;;;;;;;;;;5037706;28;20045;-52
2022/11/09 14:02:21;;;;;;;14.77;7.63;;;;;;;;;;5032214;28;20056;-49
2022/11/09 14:04:49;;;;;;;19.08;8.05;;;;;;;;;;5036365;28;20474;-50
2022/11/09 14:07:20;;;;;;;15.20;7.60;;;;;;;;;;5036281;28;20045;-52
2022/11/09 14:09:53;;;;;;;15.73;7.05;;;;;;;;;;5036145;28;20049;-49
2022/11/09 14:12:27;;;;;;;13.77;7.25;;;;;;;;;;5045731;28;20046;-51
2022/11/09 14:15:22;;;;;;;17.40;9.30;;;;;;;;;;5051568;28;20533;-50
2022/11/09 14:17:59;;;;;;;16.42;7.95;;;;;;;;;;5036470;28;20649;-52
2022/11/09 14:20:29;;;;;;;13.93;6.95;;;;;;;;;;5041641;28;20123;-50
2022/11/09 14:22:58;;;;;;;16.48;7.53;;;;;;;;;;5049901;28;20114;-53
2022/11/09 14:25:26;;;;;;;17.55;7.93;;;;;;;;;;5041236;28;20461;-49
2022/11/09 14:27:56;;;;;;;18.55;8.07;;;;;;;;;;5046307;28;20048;-50
2022/11/09 14:30:25;;;;;;;16.08;8.70;;;;;;;;;;5040592;28;20053;-50
2022/11/09 14:32:54;;;;;;;15.40;8.07;;;;;;;;;;5042237;28;20057;-50
2022/11/09 14:35:30;;;;;;;16.25;7.75;;;;;;;;;;5045912;28;20102;-50
2022/11/09 14:38:01;;;;;;;14.20;8.40;;;;;;;;;;5040010;28;20077;-49
2022/11/09 14:40:30;;;;;;;17.98;7.43;;;;;;;;;;5043795;28;20111;-50
2022/11/09 14:43:02;;;;;;;14.18;7.85;;;;;;;;;;5045796;28;20090;-52
2022/11/09 14:45:35;;;;;;;15.55;7.80;;;;;;;;;;5046011;28;20068;-49
2022/11/09 14:48:03;;;;;;;13.05;7.55;;;;;;;;;;5037879;28;20068;-52
2022/11/09 14:50:33;;;;;;;15.57;8.55;;;;;;;;;;5051262;28;20141;-50
2022/11/09 14:53:01;;;;;;;15.68;7.60;;;;;;;;;;5053116;28;20048;-49
2022/11/09 14:55:28;;;;;;;14.05;7.00;;;;;;;;;;5053090;28;20049;-50
2022/11/09 14:57:56;;;;;;;14.27;8.93;;;;;;;;;;5053192;28;20140;-49
2022/11/09 15:00:27;;;;;;;15.88;8.07;;;;;;;;;;5053201;28;20568;-54
2022/11/09 15:03:02;;;;;;;14.93;7.97;;;;;;;;;;5050833;28;20067;-50
2022/11/09 15:05:30;;;;;;;;;;;;;;;;;;5050001;28;20049;-52